createdAt,value
2023-07-18T00:00:07.656Z,3.67
2023-07-18T00:05:11.407Z,4.95
2023-07-18T00:10:12.933Z,6.00
2023-07-18T00:15:14.455Z,5.68
2023-07-18T00:20:15.991Z,5.18
2023-07-18T00:25:19.293Z,5.70
2023-07-18T00:30:22.245Z,6.97
2023-07-18T00:35:26.459Z,8.50
2023-07-18T00:40:27.946Z,7.03
2023-07-18T00:45:29.621Z,9.48
2023-07-18T00:50:31.153Z,7.22
2023-07-18T00:55:33.048Z,9.38
2023-07-18T01:00:36.484Z,8.57
2023-07-18T01:05:38.027Z,8.05
2023-07-18T01:10:39.883Z,9.73
2023-07-18T01:15:41.429Z,10.98
2023-07-18T01:20:43.006Z,10.80
2023-07-18T01:25:44.517Z,10.55
2023-07-18T01:30:46.005Z,10.02
2023-07-18T01:35:47.461Z,11.15
2023-07-18T01:40:49.121Z,8.57
2023-07-18T01:45:50.719Z,11.82
2023-07-18T01:50:53.089Z,10.85
2023-07-18T01:55:54.616Z,14.48
2023-07-18T02:00:56.512Z,12.38
2023-07-18T02:05:58.193Z,14.48
2023-07-18T02:10:59.669Z,12.32
2023-07-18T02:16:01.166Z,16.13
2023-07-18T02:21:03.571Z,12.38
2023-07-18T02:26:05.085Z,12.50
2023-07-18T02:31:06.663Z,13.75
2023-07-18T02:36:08.219Z,12.38
2023-07-18T02:41:09.700Z,14.98
2023-07-18T02:46:11.197Z,14.32
2023-07-18T02:51:12.736Z,14.50
2023-07-18T02:56:14.211Z,18.80
2023-07-18T03:01:15.943Z,15.32
2023-07-18T03:06:17.701Z,16.30
2023-07-18T03:11:19.619Z,15.95
2023-07-18T03:16:21.504Z,17.10
2023-07-18T03:21:24.052Z,13.95
2023-07-18T03:26:25.597Z,16.48
2023-07-18T03:31:27.602Z,15.38
2023-07-18T03:36:29.117Z,17.98
2023-07-18T03:41:30.659Z,18.05
2023-07-18T03:46:32.242Z,19.30
2023-07-18T03:51:35.028Z,16.42
2023-07-18T03:56:39.118Z,17.42
2023-07-18T04:01:40.642Z,17.02
2023-07-18T04:06:42.971Z,12.40
2023-07-18T04:11:44.452Z,15.10
2023-07-18T04:16:45.982Z,13.43
2023-07-18T04:21:47.523Z,16.38
2023-07-18T04:26:49.002Z,16.40
2023-07-18T04:31:50.588Z,15.70
2023-07-18T04:36:52.053Z,14.85
2023-07-18T04:41:55.763Z,15.30
2023-07-18T04:46:57.653Z,14.93
2023-07-18T04:51:59.214Z,15.85
2023-07-18T04:57:00.716Z,18.15
2023-07-18T05:02:02.298Z,12.32
2023-07-18T05:07:04.094Z,14.20
2023-07-18T05:12:06.253Z,14.88
2023-07-18T05:17:07.786Z,12.32
2023-07-18T05:22:09.274Z,23.35
2023-07-18T05:27:10.765Z,13.63
2023-07-18T05:32:12.258Z,12.38
2023-07-18T05:37:13.748Z,11.32
2023-07-18T05:42:15.233Z,27.65
2023-07-18T05:47:16.726Z,21.83
2023-07-18T05:52:18.200Z,12.07
2023-07-18T05:57:19.799Z,9.98
2023-07-18T06:02:21.299Z,17.48
2023-07-18T06:07:22.806Z,10.57
2023-07-18T06:12:24.431Z,24.65
2023-07-18T06:17:26.212Z,11.82
2023-07-18T06:22:27.719Z,7.15
2023-07-18T06:27:29.201Z,9.73
2023-07-18T06:32:30.830Z,9.07
2023-07-18T06:37:32.328Z,22.73
2023-07-18T06:42:33.848Z,10.60
2023-07-18T06:47:36.660Z,11.57
2023-07-18T06:52:38.184Z,15.13
2023-07-18T06:57:41.800Z,6.13
2023-07-18T07:02:45.074Z,8.20
2023-07-18T07:07:46.678Z,7.40
2023-07-18T07:12:48.150Z,10.27
2023-07-18T07:17:49.651Z,12.25
2023-07-18T07:22:52.094Z,9.15
2023-07-18T07:27:53.958Z,7.75
2023-07-18T07:32:55.523Z,7.70
2023-07-18T07:37:57.054Z,6.50
2023-07-18T07:42:58.541Z,7.80
2023-07-18T07:48:00.155Z,8.15
2023-07-18T07:53:02.376Z,8.80
2023-07-18T07:58:03.893Z,5.00
2023-07-18T08:03:05.474Z,8.95
2023-07-18T08:08:25.781Z,7.50
2023-07-18T08:13:27.257Z,5.85
2023-07-18T08:18:28.732Z,5.10
2023-07-18T08:23:30.201Z,5.43
2023-07-18T08:28:31.718Z,5.88
2023-07-18T08:33:33.193Z,5.85
2023-07-18T08:38:34.639Z,4.03
2023-07-18T08:43:38.021Z,4.10
2023-07-18T08:48:40.092Z,4.65
2023-07-18T08:53:42.508Z,5.85
2023-07-18T08:58:43.971Z,5.97
2023-07-18T09:03:45.438Z,4.40
2023-07-18T09:08:48.294Z,7.15
2023-07-18T09:13:49.817Z,5.22
2023-07-18T09:18:53.356Z,4.50
2023-07-18T09:23:54.835Z,1.92
2023-07-18T09:28:56.293Z,2.40
2023-07-18T09:33:57.753Z,2.88
2023-07-18T09:38:59.300Z,5.13
2023-07-18T09:44:27.212Z,4.80
2023-07-18T09:49:32.641Z,3.37
2023-07-18T09:54:35.366Z,4.45
2023-07-18T09:59:38.898Z,3.08
2023-07-18T10:04:40.382Z,3.28
2023-07-18T10:09:42.143Z,5.82
2023-07-18T10:14:43.710Z,2.95
2023-07-18T10:19:48.624Z,3.55
2023-07-18T10:30:08.422Z,1.48
2023-07-18T10:35:12.579Z,3.42
2023-07-18T10:40:32.866Z,3.23
2023-07-18T10:45:39.666Z,5.82
2023-07-18T10:50:42.700Z,2.47
2023-07-18T10:55:44.219Z,4.13
2023-07-18T11:00:47.072Z,3.03
2023-07-18T11:05:49.956Z,1.90
2023-07-18T11:11:02.103Z,3.42
2023-07-18T11:16:12.299Z,1.20
2023-07-18T11:21:17.301Z,2.60
2023-07-18T11:26:19.724Z,4.60
2023-07-18T11:36:36.949Z,3.42
2023-07-18T11:41:40.326Z,3.75
2023-07-18T11:46:45.371Z,2.00
2023-07-18T11:51:46.857Z,5.40
2023-07-18T11:56:48.325Z,1.58
2023-07-18T12:01:49.836Z,1.95
2023-07-18T12:06:51.468Z,1.88
2023-07-18T12:11:52.965Z,1.27
2023-07-18T12:16:54.490Z,2.85
2023-07-18T12:21:56.053Z,2.20
2023-07-18T12:26:57.509Z,0.98
2023-07-18T12:31:59.150Z,1.13
2023-07-18T12:37:00.745Z,2.10
2023-07-18T12:42:02.453Z,1.38
2023-07-18T12:47:04.133Z,2.70
2023-07-18T12:52:07.231Z,1.00
2023-07-18T12:57:08.823Z,1.33
2023-07-18T13:02:10.498Z,2.45
2023-07-18T13:07:12.224Z,6.25
2023-07-18T13:12:13.721Z,2.17
2023-07-18T13:17:15.322Z,3.70
2023-07-18T13:22:16.825Z,3.30
2023-07-18T13:27:18.383Z,1.52
2023-07-18T13:32:19.887Z,3.92
2023-07-18T13:37:21.382Z,6.63
2023-07-18T13:42:22.832Z,4.60
2023-07-18T13:47:24.359Z,2.75
2023-07-18T13:52:25.918Z,2.00
2023-07-18T13:57:28.051Z,5.88
2023-07-18T14:02:30.595Z,2.45
2023-07-18T14:07:32.645Z,2.67
2023-07-18T14:12:34.362Z,3.45
2023-07-18T14:17:36.173Z,4.25
2023-07-18T14:22:37.683Z,1.83
2023-07-18T14:27:39.194Z,2.80
2023-07-18T14:32:40.714Z,3.95
2023-07-18T14:37:42.275Z,2.25
2023-07-18T14:42:43.754Z,6.90
2023-07-18T14:47:45.248Z,6.35
2023-07-18T14:52:46.747Z,8.18
2023-07-18T14:57:48.247Z,4.05
2023-07-18T15:02:49.915Z,3.08
2023-07-18T15:07:51.457Z,2.97
2023-07-18T15:12:52.944Z,3.70
2023-07-18T15:17:54.650Z,2.53
2023-07-18T15:22:56.399Z,4.82
2023-07-18T15:27:58.144Z,3.65
2023-07-18T15:33:09.158Z,2.85
2023-07-18T15:38:21.160Z,4.68
2023-07-18T15:43:23.194Z,2.33
2023-07-18T15:48:24.728Z,2.88
2023-07-18T15:53:26.258Z,2.33
2023-07-18T15:58:27.732Z,1.67
2023-07-18T16:03:29.329Z,4.43
2023-07-18T16:08:31.233Z,2.65
2023-07-18T16:13:32.766Z,3.33
2023-07-18T16:18:34.226Z,2.45
2023-07-18T16:23:35.726Z,1.92
2023-07-18T16:28:37.190Z,3.58
2023-07-18T16:33:38.739Z,2.70
2023-07-18T16:38:40.259Z,2.38
2023-07-18T16:43:41.743Z,3.83
2023-07-18T16:48:43.228Z,5.32
2023-07-18T16:53:44.703Z,3.13
2023-07-18T16:58:46.231Z,3.00
2023-07-18T17:03:47.874Z,2.70
2023-07-18T17:08:49.386Z,6.88
2023-07-18T17:13:52.641Z,1.60
2023-07-18T17:18:54.370Z,3.60
2023-07-18T17:23:55.960Z,5.03
2023-07-18T17:28:57.406Z,5.00
2023-07-18T17:33:58.996Z,3.20
2023-07-18T17:39:00.510Z,5.90
2023-07-18T17:44:01.978Z,2.20
2023-07-18T17:49:03.812Z,2.33
2023-07-18T17:54:05.356Z,3.78
2023-07-18T17:59:06.955Z,4.32
2023-07-18T18:04:08.477Z,8.57
2023-07-18T18:09:10.053Z,3.45
2023-07-18T18:14:11.589Z,3.72
2023-07-18T18:19:13.120Z,4.43
2023-07-18T18:24:14.674Z,2.40
2023-07-18T18:29:16.223Z,3.70
2023-07-18T18:34:17.812Z,4.13
2023-07-18T18:39:19.446Z,4.05
2023-07-18T18:44:21.002Z,3.55
2023-07-18T18:49:27.046Z,4.30
2023-07-18T18:54:29.194Z,3.28
2023-07-18T18:59:30.726Z,3.70
2023-07-18T19:04:32.305Z,5.07
2023-07-18T19:09:33.933Z,2.90
2023-07-18T19:14:41.883Z,5.07
2023-07-18T19:19:43.783Z,2.28
2023-07-18T19:24:45.333Z,2.67
2023-07-18T19:29:46.866Z,2.92
2023-07-18T19:34:48.402Z,2.58
2023-07-18T19:39:50.206Z,2.35
2023-07-18T19:44:51.792Z,2.05
2023-07-18T19:49:53.310Z,2.17
2023-07-18T19:54:54.845Z,3.65
2023-07-18T19:59:56.381Z,4.15
2023-07-18T20:04:57.934Z,3.20
2023-07-18T20:09:59.449Z,3.22
2023-07-18T20:15:01.031Z,4.70
2023-07-18T20:20:02.710Z,3.17
2023-07-18T20:25:04.705Z,4.82
2023-07-18T20:30:06.869Z,9.20
2023-07-18T20:35:08.691Z,3.08
2023-07-18T20:40:11.075Z,2.33
2023-07-18T20:45:12.682Z,4.93
2023-07-18T20:50:14.205Z,4.38
2023-07-18T20:55:15.917Z,4.75
2023-07-18T21:00:17.594Z,3.72
2023-07-18T21:05:19.126Z,2.80
2023-07-18T21:10:20.806Z,6.43
2023-07-18T21:15:22.398Z,3.25
2023-07-18T21:20:23.951Z,4.90
2023-07-18T21:25:25.487Z,3.60
2023-07-18T21:30:27.113Z,3.55
2023-07-18T21:35:28.738Z,4.82
2023-07-18T21:40:30.275Z,5.50
2023-07-18T21:45:32.089Z,2.97
2023-07-18T21:50:33.840Z,3.53
2023-07-18T21:55:38.476Z,4.70
2023-07-18T22:00:39.986Z,4.10
2023-07-18T22:05:41.536Z,3.97
2023-07-18T22:10:43.229Z,4.35
2023-07-18T22:15:44.842Z,4.50
2023-07-18T22:20:46.341Z,4.55
2023-07-18T22:25:59.667Z,4.55
2023-07-18T22:31:11.746Z,3.13
2023-07-18T22:36:13.346Z,4.50
2023-07-18T22:41:14.888Z,5.53
2023-07-18T22:46:16.417Z,3.65
2023-07-18T22:51:18.213Z,5.25
2023-07-18T22:56:19.983Z,5.55
2023-07-18T23:01:22.099Z,4.63
2023-07-18T23:06:23.883Z,7.75
2023-07-18T23:11:25.382Z,4.90
2023-07-18T23:16:26.990Z,3.55
2023-07-18T23:21:28.488Z,3.60
2023-07-18T23:26:29.985Z,5.15
2023-07-18T23:31:31.420Z,6.20
2023-07-18T23:36:32.900Z,7.80
2023-07-18T23:41:34.427Z,5.47
2023-07-18T23:46:35.951Z,6.45
2023-07-18T23:51:37.417Z,5.28
2023-07-18T23:56:38.884Z,5.07
